createdAt,value
2022-10-11T00:03:23.466Z,96557.59
2022-10-11T00:13:26.096Z,96565.75
2022-10-11T00:23:30.363Z,96557.41
2022-10-11T00:33:32.859Z,96573.25
2022-10-11T00:43:36.727Z,96570.00
2022-10-11T00:53:39.632Z,96569.97
2022-10-11T01:03:43.531Z,96569.16
2022-10-11T01:13:52.938Z,96566.66
2022-10-11T01:24:15.360Z,96566.19
2022-10-11T01:34:23.415Z,96566.34
2022-10-11T01:44:26.650Z,96565.50
2022-10-11T01:55:08.277Z,96558.34
2022-10-11T02:05:10.191Z,96555.06
2022-10-11T02:15:15.411Z,96561.44
2022-10-11T02:25:20.194Z,96567.22
2022-10-11T02:35:25.526Z,96560.31
2022-10-11T02:45:32.480Z,96568.38
2022-10-11T02:55:36.407Z,96570.28
2022-10-11T03:05:40.692Z,96577.28
2022-10-11T03:15:44.441Z,96583.47
2022-10-11T03:25:47.064Z,96581.06
2022-10-11T03:35:50.852Z,96582.84
2022-10-11T03:45:53.286Z,96579.56
2022-10-11T03:55:57.074Z,96575.72
2022-10-11T04:05:59.472Z,96594.44
2022-10-11T04:16:03.737Z,96603.06
2022-10-11T04:26:08.109Z,96607.34
2022-10-11T04:36:12.152Z,96610.00
2022-10-11T04:46:14.564Z,96624.03
2022-10-11T04:56:18.605Z,96638.19
2022-10-11T05:06:21.065Z,96640.88
2022-10-11T05:16:24.826Z,96644.34
2022-10-11T05:26:29.227Z,96644.63
2022-10-11T05:36:33.048Z,96649.00
2022-10-11T05:46:35.423Z,96658.56
2022-10-11T05:56:39.208Z,96672.34
2022-10-11T06:06:41.579Z,96682.25
2022-10-11T06:16:45.355Z,96695.47
2022-10-11T06:26:49.509Z,96698.41
2022-10-11T06:36:53.265Z,96710.78
2022-10-11T06:46:55.687Z,96700.84
2022-10-11T06:57:00.208Z,96711.13
2022-10-11T07:07:02.627Z,96718.84
2022-10-11T07:17:06.403Z,96723.53
2022-10-11T07:27:08.829Z,96738.34
2022-10-11T07:37:12.588Z,96737.25
2022-10-11T07:47:15.005Z,96748.03
2022-10-11T07:57:18.745Z,96748.34
2022-10-11T08:07:21.157Z,96757.25
2022-10-11T08:17:24.900Z,96761.47
2022-10-11T08:27:28.504Z,96764.50
2022-10-11T08:37:32.325Z,96769.13
2022-10-11T08:47:37.922Z,96775.22
2022-10-11T08:57:44.223Z,96783.28
2022-10-11T09:07:52.556Z,96768.50
2022-10-11T09:18:05.241Z,96772.97
2022-10-11T09:28:13.303Z,96780.72
2022-10-11T09:38:28.038Z,96772.41
2022-10-11T09:48:33.846Z,96779.91
2022-10-11T09:58:38.598Z,96786.16
2022-10-11T10:08:42.926Z,96789.78
2022-10-11T10:18:51.239Z,96797.03
2022-10-11T10:28:58.419Z,96803.19
2022-10-11T10:39:06.587Z,96803.81
2022-10-11T10:49:52.662Z,96796.38
2022-10-11T10:59:45.248Z,96797.38
2022-10-11T11:09:51.730Z,96785.53
2022-10-11T11:20:01.973Z,96789.94
2022-10-11T11:30:07.333Z,96788.84
2022-10-11T11:40:16.439Z,96772.44
2022-10-11T11:50:22.463Z,96779.66
2022-10-11T12:00:28.504Z,96765.50
2022-10-11T12:10:33.571Z,96766.75
2022-10-11T12:20:40.725Z,96770.72
2022-10-11T12:30:53.410Z,96762.78
2022-10-11T12:41:00.396Z,96760.22
2022-10-11T12:51:11.126Z,96758.84
2022-10-11T13:01:19.724Z,96752.81
2022-10-11T13:11:23.534Z,96742.00
2022-10-11T13:21:30.321Z,96736.41
2022-10-11T13:31:33.001Z,96727.19
2022-10-11T13:41:36.928Z,96732.97
2022-10-11T13:51:39.409Z,96736.66
2022-10-11T14:01:45.609Z,96741.47
2022-10-11T14:11:48.150Z,96730.69
2022-10-11T14:21:52.692Z,96731.47
2022-10-11T14:31:57.573Z,96729.94
2022-10-11T14:42:01.355Z,96729.97
2022-10-11T14:52:04.775Z,96731.41
2022-10-11T15:02:09.342Z,96724.38
2022-10-11T15:12:11.738Z,96728.50
2022-10-11T15:22:15.478Z,96729.59
2022-10-11T15:32:17.883Z,96722.00
2022-10-11T15:42:21.649Z,96715.69
2022-10-11T15:52:24.045Z,96718.91
2022-10-11T16:02:27.822Z,96723.38
2022-10-11T16:12:30.207Z,96705.88
2022-10-11T16:22:34.011Z,96703.28
2022-10-11T16:32:36.390Z,96708.59
2022-10-11T16:42:40.168Z,96712.56
2022-10-11T16:52:42.580Z,96715.44
2022-10-11T17:02:49.065Z,96719.69
2022-10-11T17:12:51.509Z,96724.94
2022-10-11T17:23:02.178Z,96722.91
2022-10-11T17:33:04.771Z,96718.22
2022-10-11T17:43:09.190Z,96727.22
2022-10-11T17:53:11.629Z,96724.94
2022-10-11T18:03:15.379Z,96726.41
2022-10-11T18:13:18.298Z,96732.13
2022-10-11T18:23:22.049Z,96724.31
2022-10-11T18:33:24.467Z,96728.22
2022-10-11T18:43:28.273Z,96723.81
2022-10-11T18:53:31.786Z,96711.75
2022-10-11T19:03:35.896Z,96717.22
2022-10-11T19:13:38.644Z,96719.91
2022-10-11T19:23:43.093Z,96714.78
2022-10-11T19:33:49.530Z,96716.19
2022-10-11T19:43:53.611Z,96724.97
2022-10-11T19:53:56.685Z,96728.88
2022-10-11T20:04:02.204Z,96733.72
2022-10-11T20:14:04.655Z,96736.06
2022-10-11T20:24:08.855Z,96741.13
2022-10-11T20:34:11.249Z,96736.41
2022-10-11T20:44:16.079Z,96730.75
2022-10-11T20:54:18.566Z,96726.34
2022-10-11T21:04:22.288Z,96725.53
2022-10-11T21:14:24.658Z,96728.41
2022-10-11T21:24:28.425Z,96722.44
2022-10-11T21:34:30.821Z,96709.75
2022-10-11T21:44:36.334Z,96697.78
2022-10-11T21:54:38.947Z,96710.09
2022-10-11T22:04:42.777Z,96703.00
2022-10-11T22:14:45.155Z,96708.38
2022-10-11T22:24:48.856Z,96709.16
2022-10-11T22:34:51.229Z,96698.41
2022-10-11T22:44:54.981Z,96699.97
2022-10-11T22:54:57.379Z,96697.84
2022-10-11T23:05:01.131Z,96699.16
2022-10-11T23:15:06.125Z,96690.75
2022-10-11T23:25:10.484Z,96684.69
2022-10-11T23:35:12.934Z,96687.84
2022-10-11T23:45:16.684Z,96687.75
2022-10-11T23:55:19.314Z,96686.34
